Time;durP1;ratioP1;P1;durP2;ratioP2;P2;SDS_P1;SDS_P2;PMS_P1;PMS_P2;Temp;Humidity;BMP_temperature;BMP_pressure;BME280_temperature;BME280_humidity;BME280_pressure;Samples;Min_cycle;Max_cycle;Signal;HPM_P1;HPM_P2
2022/05/24 00:00:23;;;;;;;2.92;1.52;;;;;;;15.04;75.00;92964.06;5069773;28;20044;-52
2022/05/24 00:02:51;;;;;;;3.55;1.48;;;;;;;14.95;75.48;92953.03;5069613;28;20535;-55
2022/05/24 00:05:20;;;;;;;51.80;26.50;;;;;;;14.96;75.70;92960.09;5069867;28;20045;-55
2022/05/24 00:07:47;;;;;;;4.28;2.35;;;;;;;14.87;73.59;92954.59;5069487;28;20375;-51
2022/05/24 00:10:18;;;;;;;3.45;1.70;;;;;;;14.92;74.43;92968.56;5069815;28;20044;-54
2022/05/24 00:12:45;;;;;;;4.10;1.70;;;;;;;14.80;76.27;92968.78;5069726;28;20428;-56
2022/05/24 00:15:29;;;;;;;3.05;1.50;;;;;;;14.85;76.60;92960.63;5069723;28;20045;-55
2022/05/24 00:17:58;;;;;;;4.13;1.67;;;;;;;14.92;76.43;92965.03;5069121;28;20905;-50
2022/05/24 00:20:33;;;;;;;5.18;1.58;;;;;;;14.68;78.27;92968.50;5069148;28;20050;-48
2022/05/24 00:23:00;;;;;;;3.78;1.58;;;;;;;14.66;78.27;92964.66;5069064;28;20051;-49
2022/05/24 00:25:33;;;;;;;3.58;1.60;;;;;;;14.67;78.66;92960.66;5048917;28;20053;-55
2022/05/24 00:28:00;;;;;;;5.90;1.80;;;;;;;14.74;78.54;92961.09;5049713;28;20424;-50
2022/05/24 00:30:27;;;;;;;27.03;15.37;;;;;;;14.73;78.34;92954.06;5048965;28;20041;-50
2022/05/24 00:32:54;;;;;;;8.60;4.63;;;;;;;14.74;78.43;92960.34;5049890;28;20052;-49
2022/05/24 00:35:21;;;;;;;4.60;1.95;;;;;;;14.70;79.04;92954.22;5049272;28;20071;-51
2022/05/24 00:37:49;;;;;;;3.10;1.65;;;;;;;14.65;79.16;92963.91;5050778;28;20409;-50
2022/05/24 00:40:28;;;;;;;6.13;1.85;;;;;;;14.61;78.99;92960.56;5053460;28;20047;-53
2022/05/24 00:42:55;;;;;;;8.27;1.60;;;;;;;14.60;79.09;92969.28;5052914;28;20423;-54
2022/05/24 00:45:37;;;;;;;3.53;1.42;;;;;;;14.56;78.99;92964.69;5053404;28;20057;-48
2022/05/24 00:48:08;;;;;;;4.00;1.52;;;;;;;14.57;78.76;92968.22;5052804;28;20898;-49
2022/05/24 00:50:44;;;;;;;3.85;1.40;;;;;;;14.61;78.18;92960.56;5052982;28;20045;-55
2022/05/24 00:53:24;;;;;;;3.78;1.90;;;;;;;14.57;78.54;92959.94;5060758;28;20403;-47
2022/05/24 00:55:59;;;;;;;22.07;11.67;;;;;;;14.46;78.93;92965.16;5072795;28;20497;-56
2022/05/24 00:58:38;;;;;;;9.25;3.75;;;;;;;14.46;79.20;92960.41;5073370;28;20056;-49
2022/05/24 01:01:33;;;;;;;3.53;1.92;;;;;;;14.33;79.45;92944.03;5072566;28;20408;-55
2022/05/24 01:04:00;;;;;;;7.68;4.40;;;;;;;14.20;80.29;92951.69;5072265;28;20133;-48
2022/05/24 01:06:27;;;;;;;4.47;1.83;;;;;;;14.09;80.79;92954.94;5072528;28;20052;-48
2022/05/24 01:08:58;;;;;;;5.83;2.77;;;;;;;14.04;80.63;92952.78;5073031;28;20040;-52
2022/05/24 01:11:25;;;;;;;5.53;3.05;;;;;;;14.13;80.29;92952.03;5072765;28;20055;-46
2022/05/24 01:13:56;;;;;;;4.65;2.53;;;;;;;14.19;80.56;92947.44;5071660;28;20294;-48
2022/05/24 01:16:22;;;;;;;3.45;2.13;;;;;;;14.26;80.32;92944.34;5071276;28;20093;-45
2022/05/24 01:18:49;;;;;;;3.78;2.03;;;;;;;14.29;80.27;92954.47;5087921;28;20382;-49
2022/05/24 01:21:17;;;;;;;4.73;2.10;;;;;;;14.29;80.85;92948.19;5072335;28;20397;-50
2022/05/24 01:24:00;;;;;;;3.67;1.70;;;;;;;14.34;80.91;92942.78;5071435;28;20428;-57
2022/05/24 01:26:37;;;;;;;3.15;1.88;;;;;;;14.28;80.99;92930.06;5092431;28;20109;-47
2022/05/24 01:29:06;;;;;;;3.95;1.77;;;;;;;14.09;82.06;92913.56;5092773;28;20043;-50
2022/05/24 01:37:10;;;;;;;3.47;1.77;;;;;;;14.05;82.13;92926.00;5091962;28;20112;-50
2022/05/24 01:39:39;;;;;;;3.45;1.83;;;;;;;13.78;83.82;92933.03;5092304;28;20044;-51
2022/05/24 01:42:07;;;;;;;3.80;1.70;;;;;;;13.84;83.34;92925.69;5092704;28;20086;-52
2022/05/24 01:44:40;;;;;;;3.88;1.70;;;;;;;13.81;82.88;92931.38;5092207;28;20136;-48
2022/05/24 01:47:07;;;;;;;4.73;1.77;;;;;;;13.85;82.72;92935.50;5092462;28;20116;-47
2022/05/24 01:49:38;;;;;;;4.35;2.10;;;;;;;13.85;82.51;92934.75;5091509;28;20044;-53
2022/05/24 01:52:28;;;;;;;4.18;1.73;;;;;;;13.79;83.20;92931.84;5092434;28;20079;-48
2022/05/24 01:55:01;;;;;;;5.30;2.10;;;;;;;13.77;83.85;92924.00;5057034;28;20044;-49
2022/05/24 01:57:33;;;;;;;4.80;2.00;;;;;;;13.77;83.84;92923.25;5071591;28;20370;-50
2022/05/24 02:00:04;;;;;;;5.57;2.00;;;;;;;13.81;83.21;92923.09;5072123;28;20043;-46
2022/05/24 02:02:30;;;;;;;3.20;1.90;;;;;;;13.85;83.43;92916.19;5071513;28;20879;-49
2022/05/24 02:04:57;;;;;;;4.78;1.85;;;;;;;13.81;83.35;92912.06;5071928;28;20043;-50
2022/05/24 02:07:25;;;;;;;3.63;2.08;;;;;;;13.68;83.98;92914.97;5071854;28;20390;-49
2022/05/24 02:09:56;;;;;;;3.80;1.85;;;;;;;13.56;84.25;92909.19;5062918;28;20793;-51
2022/05/24 02:12:27;;;;;;;4.90;2.30;;;;;;;13.56;84.50;92906.41;5071988;28;20401;-54
2022/05/24 02:15:02;;;;;;;5.18;2.00;;;;;;;13.64;84.49;92914.38;5063220;28;21622;-50
2022/05/24 02:17:57;;;;;;;4.07;2.22;;;;;;;13.62;84.70;92917.56;5071324;28;20052;-47
2022/05/24 02:20:30;;;;;;;5.80;1.98;;;;;;;13.69;84.54;92925.56;5063657;28;20044;-50
2022/05/24 02:22:57;;;;;;;4.97;2.00;;;;;;;13.74;84.24;92919.44;5063222;28;20076;-54
2022/05/24 02:25:35;;;;;;;2.83;1.90;;;;;;;13.68;83.46;92932.31;5091311;28;20044;-54
2022/05/24 02:28:03;;;;;;;3.55;1.77;;;;;;;13.58;84.13;92925.22;5090940;28;20489;-51
2022/05/24 02:30:31;;;;;;;4.78;2.20;;;;;;;13.68;83.62;92926.00;5091172;28;20044;-53
2022/05/24 02:32:58;;;;;;;3.20;2.13;;;;;;;13.69;83.61;92919.28;5091757;28;20047;-50
2022/05/24 02:35:25;;;;;;;6.18;2.20;;;;;;;13.62;83.99;92908.53;5090344;28;20093;-52
2022/05/24 02:37:51;;;;;;;4.70;2.27;;;;;;;13.66;84.39;92923.72;5090841;28;20042;-48
2022/05/24 02:43:04;;;;;;;3.40;2.20;;;;;;;13.73;84.24;92928.16;5090635;28;20238;-50
2022/05/24 02:45:31;;;;;;;4.55;2.28;;;;;;;13.78;84.14;92925.56;5090830;28;20043;-50
2022/05/24 02:47:58;;;;;;;3.67;2.10;;;;;;;13.84;83.92;92930.44;5091519;28;20338;-50
2022/05/24 02:50:25;;;;;;;3.80;2.00;;;;;;;13.79;83.70;92926.31;5091217;28;20151;-50
2022/05/24 02:52:51;;;;;;;5.18;2.40;;;;;;;13.79;83.87;92927.06;5089179;28;20384;-48
2022/05/24 02:55:18;;;;;;;4.97;2.50;;;;;;;13.61;84.70;92938.13;5090980;28;20100;-54
2022/05/24 02:57:45;;;;;;;4.63;2.15;;;;;;;13.57;85.35;92941.00;5090452;28;20044;-55
2022/05/24 03:00:15;;;;;;;3.60;2.20;;;;;;;13.42;86.32;92944.81;5090420;28;20040;-53
2022/05/24 03:02:42;;;;;;;5.97;2.57;;;;;;;13.43;86.56;92943.63;5089627;28;20040;-50
2022/05/24 03:05:12;;;;;;;4.28;2.40;;;;;;;13.51;86.47;92939.34;5081801;28;20052;-46
2022/05/24 03:10:26;;;;;;;6.30;2.80;;;;;;;13.49;86.49;92942.53;5070721;28;20051;-48
2022/05/24 03:15:42;;;;;;;4.53;2.90;;;;;;;13.66;86.54;92936.72;5069706;28;20042;-49
2022/05/24 03:18:11;;;;;;;4.68;3.05;;;;;;;13.73;85.81;92941.94;5070723;28;20434;-49
2022/05/24 03:20:38;;;;;;;4.60;2.78;;;;;;;13.74;85.93;92935.19;5069486;28;20044;-57
2022/05/24 03:23:05;;;;;;;5.85;3.10;;;;;;;13.65;86.10;92947.00;5070714;28;20047;-54
2022/05/24 03:25:32;;;;;;;4.70;3.15;;;;;;;13.74;86.17;92946.22;5069601;28;20040;-50
2022/05/24 03:28:00;;;;;;;4.77;3.00;;;;;;;13.80;85.65;92947.13;5069192;28;20048;-47
2022/05/24 03:30:27;;;;;;;6.78;3.20;;;;;;;13.78;85.84;92944.88;5069690;28;20046;-49
2022/05/24 03:32:54;;;;;;;5.03;3.08;;;;;;;13.83;85.68;92953.75;5070197;28;20117;-54
2022/05/24 03:35:21;;;;;;;6.18;2.90;;;;;;;13.89;85.47;92952.66;5068696;28;20049;-52
2022/05/24 03:37:48;;;;;;;5.25;3.15;;;;;;;13.95;85.18;92948.06;5068634;28;20491;-52
2022/05/24 03:40:15;;;;;;;8.00;3.33;;;;;;;13.82;85.75;92943.94;5070160;28;20114;-48
2022/05/24 03:42:45;;;;;;;4.90;3.33;;;;;;;13.90;85.48;92945.91;5069751;28;20053;-48
2022/05/24 03:45:13;;;;;;;6.55;3.30;;;;;;;13.96;85.00;92946.84;5070425;28;20485;-53
2022/05/24 03:47:40;;;;;;;6.65;4.28;;;;;;;13.99;84.71;92921.09;5069485;28;20417;-50
2022/05/24 03:50:08;;;;;;;5.95;3.80;;;;;;;14.03;84.87;92931.97;5070123;28;20040;-48
2022/05/24 03:52:35;;;;;;;6.70;3.50;;;;;;;14.07;84.64;92948.38;5068912;28;20055;-46
2022/05/24 03:55:03;;;;;;;5.03;3.30;;;;;;;14.07;84.56;92949.13;5089039;28;20040;-48
2022/05/24 04:00:19;;;;;;;6.93;3.20;;;;;;;14.02;84.78;92938.69;5090348;28;20384;-55
2022/05/24 04:02:46;;;;;;;7.03;3.53;;;;;;;14.00;84.26;92930.13;5089863;28;20036;-49
2022/05/24 04:05:13;;;;;;;5.57;3.43;;;;;;;13.83;85.43;92937.97;5090102;28;20116;-56
2022/05/24 04:07:40;;;;;;;6.03;3.25;;;;;;;13.97;84.57;92945.59;5089421;28;20047;-55
2022/05/24 04:10:09;;;;;;;6.18;3.35;;;;;;;14.02;84.05;92955.25;5090011;28;20036;-48
2022/05/24 04:12:36;;;;;;;8.50;3.10;;;;;;;13.99;84.50;92950.66;5089329;28;20044;-50
2022/05/24 04:15:04;;;;;;;6.45;3.30;;;;;;;13.92;84.40;92948.22;5090208;28;20036;-50
2022/05/24 04:17:35;;;;;;;4.47;3.20;;;;;;;13.93;84.64;92958.03;5089272;28;20071;-55
2022/05/24 04:20:04;;;;;;;6.60;3.10;;;;;;;13.97;84.15;92966.91;5089895;28;20044;-54
2022/05/24 04:22:31;;;;;;;5.57;3.60;;;;;;;13.91;84.38;92966.00;5089325;28;20044;-49
2022/05/24 04:24:58;;;;;;;6.18;3.40;;;;;;;13.93;84.48;92977.34;5081496;28;20042;-55
2022/05/24 04:27:24;;;;;;;4.90;2.95;;;;;;;13.95;83.69;92983.16;5088239;28;20411;-47
2022/05/24 04:29:53;;;;;;;4.53;3.03;;;;;;;13.96;83.83;92990.19;5089346;28;20055;-50
2022/05/24 04:32:21;;;;;;;6.40;3.70;;;;;;;13.81;84.38;92997.56;5089824;28;20043;-53
2022/05/24 04:34:48;;;;;;;7.95;3.90;;;;;;;13.83;85.21;92997.88;5089470;28;20400;-48
2022/05/24 04:37:17;;;;;;;6.30;3.50;;;;;;;13.94;84.04;93000.94;5089746;28;20078;-47
2022/05/24 04:39:43;;;;;;;8.13;3.30;;;;;;;14.02;84.05;92995.88;5088745;28;20411;-54
2022/05/24 04:42:21;;;;;;;6.77;3.00;;;;;;;14.08;83.78;93010.59;5089667;28;20044;-51
2022/05/24 04:44:59;;;;;;;6.18;3.10;;;;;;;14.04;83.72;93007.97;5088976;28;20424;-50
2022/05/24 04:47:29;;;;;;;4.25;2.60;;;;;;;13.99;83.12;92998.31;5089221;28;20067;-51
2022/05/24 04:49:58;;;;;;;5.88;3.05;;;;;;;13.99;82.75;92992.03;5088590;28;20044;-51
2022/05/24 04:52:29;;;;;;;6.35;3.47;;;;;;;14.06;82.39;92985.44;5087809;28;20381;-48
2022/05/24 04:54:56;;;;;;;5.57;3.30;;;;;;;14.08;82.55;92994.78;5068519;28;20795;-54
2022/05/24 04:57:24;;;;;;;5.60;3.08;;;;;;;14.13;82.41;93002.47;5069005;28;20051;-50
2022/05/24 04:59:51;;;;;;;5.47;3.28;;;;;;;14.21;82.44;93007.69;5068812;28;20043;-48
2022/05/24 05:02:19;;;;;;;6.25;2.88;;;;;;;14.25;81.83;93000.00;5070583;28;20420;-54
2022/05/24 05:04:46;;;;;;;5.35;3.10;;;;;;;14.13;82.05;92996.94;5068722;28;20075;-48
2022/05/24 05:07:16;;;;;;;4.67;2.53;;;;;;;14.29;81.70;93003.38;5069309;28;20044;-51
2022/05/24 05:09:43;;;;;;;4.63;3.30;;;;;;;14.30;81.38;93008.41;5068584;28;20351;-54
2022/05/24 05:12:11;;;;;;;8.15;2.80;;;;;;;14.37;79.97;92999.06;5069225;28;20189;-51
2022/05/24 05:14:40;;;;;;;5.68;2.90;;;;;;;14.47;79.66;93005.34;5068106;28;20048;-49
2022/05/24 05:17:07;;;;;;;10.88;3.00;;;;;;;14.45;78.75;93000.28;5084549;28;20041;-49
2022/05/24 05:19:34;;;;;;;4.60;2.30;;;;;;;14.62;78.70;92997.19;5068214;28;20041;-51
2022/05/24 05:22:02;;;;;;;4.85;2.35;;;;;;;14.47;78.89;93008.88;5068795;28;20102;-51
2022/05/24 05:24:30;;;;;;;3.88;2.50;;;;;;;14.27;80.00;93017.63;5070787;28;20413;-52
2022/05/24 05:26:57;;;;;;;8.35;2.40;;;;;;;14.39;79.85;93015.94;5072740;28;20037;-50
2022/05/24 05:32:26;;;;;;;5.60;2.57;;;;;;;14.52;77.48;93029.56;5071774;28;21868;-53
2022/05/24 05:34:53;;;;;;;4.35;2.67;;;;;;;14.64;77.51;93033.41;5071736;28;20784;-52
2022/05/24 05:37:20;;;;;;;4.57;2.30;;;;;;;14.78;75.82;93038.28;5071415;28;20052;-48
2022/05/24 05:39:47;;;;;;;9.70;2.83;;;;;;;14.74;74.54;93043.97;5071885;28;20062;-48
2022/05/24 05:42:13;;;;;;;5.03;2.35;;;;;;;14.85;74.19;93043.50;5072425;28;20036;-50
2022/05/24 05:44:40;;;;;;;5.00;2.20;;;;;;;14.71;73.81;93049.66;5071344;28;20431;-51
2022/05/24 05:47:08;;;;;;;4.93;2.25;;;;;;;14.77;73.73;93048.56;5071983;28;20535;-56
2022/05/24 05:49:35;;;;;;;3.60;2.00;;;;;;;14.31;75.18;93034.03;5071068;28;20051;-50
2022/05/24 05:52:02;;;;;;;4.18;2.10;;;;;;;14.30;74.50;93038.00;5072442;28;20037;-51
2022/05/24 05:54:29;;;;;;;3.85;1.98;;;;;;;14.26;74.85;93035.41;5086912;28;20050;-46
2022/05/24 05:56:55;;;;;;;4.27;1.83;;;;;;;14.45;73.60;93041.69;5092034;28;20044;-48
2022/05/24 05:59:22;;;;;;;4.20;1.70;;;;;;;14.45;73.90;93049.97;5092125;28;20047;-55
2022/05/24 06:01:49;;;;;;;4.95;1.95;;;;;;;14.82;73.18;93047.16;5091637;28;20048;-51
2022/05/24 06:04:16;;;;;;;6.70;1.60;;;;;;;15.24;70.50;93053.94;5092477;28;20080;-47
2022/05/24 06:06:46;;;;;;;4.47;1.70;;;;;;;15.55;68.56;93059.97;5091515;28;20389;-51
2022/05/24 06:09:14;;;;;;;7.03;1.50;;;;;;;15.73;67.07;93059.09;5092380;28;20044;-54
2022/05/24 06:11:41;;;;;;;3.40;1.80;;;;;;;17.27;62.52;93058.75;5091129;28;20054;-57
2022/05/24 06:14:09;;;;;;;4.20;1.60;;;;;;;17.53;59.42;93063.69;5092083;28;20120;-52
2022/05/24 06:16:36;;;;;;;3.47;1.10;;;;;;;17.45;59.29;93062.56;5091197;28;20044;-50
2022/05/24 06:19:06;;;;;;;4.10;1.58;;;;;;;16.53;63.47;93067.75;5091873;28;20048;-49
2022/05/24 06:21:33;;;;;;;2.73;1.50;;;;;;;16.72;63.09;93065.59;5091002;28;20046;-49
2022/05/24 06:24:05;;;;;;;4.70;1.60;;;;;;;16.62;63.84;93058.63;5087220;28;20037;-50
2022/05/24 06:26:33;;;;;;;4.32;1.60;;;;;;;16.63;63.05;93062.16;5071012;28;20065;-54
2022/05/24 06:29:01;;;;;;;3.78;1.63;;;;;;;16.79;63.54;93070.00;5071498;28;20382;-50
2022/05/24 06:31:28;;;;;;;3.13;1.60;;;;;;;16.78;63.56;93072.00;5071061;28;20404;-51
2022/05/24 06:33:55;;;;;;;3.23;1.40;;;;;;;16.45;63.90;93071.38;5071356;28;20044;-46
2022/05/24 06:36:22;;;;;;;4.20;1.80;;;;;;;15.80;66.85;93071.84;5070417;28;20036;-48
2022/05/24 06:38:49;;;;;;;3.47;1.70;;;;;;;15.77;66.96;93078.28;5070367;28;20379;-52
2022/05/24 06:41:15;;;;;;;3.28;1.50;;;;;;;15.07;68.58;93084.72;5071361;28;20036;-49
2022/05/24 06:43:42;;;;;;;4.07;1.55;;;;;;;15.29;69.41;93100.28;5070378;28;20044;-51
2022/05/24 06:46:09;;;;;;;4.10;1.50;;;;;;;14.91;69.72;93094.13;5071012;28;20064;-50
2022/05/24 06:48:38;;;;;;;4.22;1.60;;;;;;;15.05;70.67;93103.75;5070059;28;20497;-47
2022/05/24 06:51:16;;;;;;;3.72;1.45;;;;;;;15.12;70.64;93105.44;5071259;28;20041;-47
2022/05/24 06:53:45;;;;;;;6.85;1.80;;;;;;;15.25;70.74;93108.78;5058220;28;20053;-48
2022/05/24 06:56:12;;;;;;;5.18;2.20;;;;;;;15.25;70.36;93108.78;5051080;28;20041;-47
2022/05/24 06:58:39;;;;;;;4.20;1.60;;;;;;;15.36;71.29;93117.31;5050500;28;20044;-47
2022/05/24 07:03:55;;;;;;;5.15;1.95;;;;;;;14.69;73.76;93132.19;5049984;28;20045;-48
2022/05/24 07:06:22;;;;;;;4.10;1.85;;;;;;;14.62;74.35;93140.78;5050816;28;20346;-52
2022/05/24 07:08:49;;;;;;;3.58;1.67;;;;;;;14.61;73.69;93145.56;5050032;28;20079;-47
2022/05/24 07:11:19;;;;;;;4.87;2.10;;;;;;;14.76;75.19;93148.44;5050800;28;20079;-54
2022/05/24 07:13:52;;;;;;;3.63;1.65;;;;;;;15.02;73.31;93151.66;5049620;28;20509;-52
2022/05/24 07:16:19;;;;;;;3.17;1.60;;;;;;;14.61;73.76;93153.84;5050505;28;20049;-48
2022/05/24 07:18:46;;;;;;;4.55;1.70;;;;;;;14.48;75.63;93147.66;5049748;28;20413;-50
2022/05/24 07:21:13;;;;;;;3.58;1.70;;;;;;;14.55;76.27;93150.88;5050160;28;20508;-47
2022/05/24 07:23:40;;;;;;;3.90;1.77;;;;;;;13.59;78.22;93155.59;5049382;28;20037;-47
2022/05/24 07:26:16;;;;;;;3.75;1.70;;;;;;;14.40;77.51;93183.06;5050302;28;20059;-51
2022/05/24 07:29:03;;;;;;;4.35;1.60;;;;;;;14.46;76.41;93188.75;5049616;28;21924;-54
2022/05/24 07:31:31;;;;;;;2.17;1.00;;;;;;;14.26;72.95;93205.75;5049974;28;20075;-63
2022/05/24 07:33:59;;;;;;;2.60;0.82;;;;;;;14.19;73.12;93206.81;5050293;28;20119;-48
2022/05/24 07:36:26;;;;;;;2.53;0.63;;;;;;;13.00;73.67;93207.75;5050332;28;20057;-53
2022/05/24 07:38:52;;;;;;;3.00;0.70;;;;;;;13.27;72.84;93211.91;5049633;28;20037;-46
2022/05/24 07:46:49;;;;;;;2.22;0.80;;;;;;;13.91;69.61;93236.31;5049412;28;20435;-48
2022/05/24 07:49:16;;;;;;;1.80;0.60;;;;;;;14.17;68.57;93212.03;5050245;28;20049;-51
2022/05/24 07:51:43;;;;;;;3.67;0.60;;;;;;;15.01;64.90;93223.94;5049198;28;20045;-49
2022/05/24 07:54:09;;;;;;;2.40;0.63;;;;;;;14.44;66.55;93224.34;5065800;28;20473;-50
2022/05/24 07:56:36;;;;;;;1.92;0.45;;;;;;;14.63;65.94;93242.50;5069228;28;20063;-45
2022/05/24 07:59:03;;;;;;;2.25;0.68;;;;;;;14.90;67.03;93229.94;5069990;28;20044;-52
2022/05/24 08:01:30;;;;;;;2.30;0.73;;;;;;;14.88;66.93;93233.16;5069645;28;20046;-48
2022/05/24 08:03:57;;;;;;;1.33;0.47;;;;;;;15.36;63.21;93225.16;5070022;28;20408;-47
2022/05/24 08:06:24;;;;;;;1.50;0.40;;;;;;;15.18;62.43;93228.69;5070026;28;20397;-46
2022/05/24 08:08:51;;;;;;;3.15;0.57;;;;;;;14.73;64.19;93230.25;5067856;28;20169;-46
2022/05/24 08:11:18;;;;;;;3.72;0.70;;;;;;;14.30;66.23;93239.50;5069937;28;20470;-46
2022/05/24 08:13:44;;;;;;;4.57;1.10;;;;;;;14.42;65.82;93229.56;5069273;28;20045;-50
2022/05/24 08:16:11;;;;;;;1.52;0.55;;;;;;;14.24;66.94;93235.78;5069996;28;20055;-50
2022/05/24 08:18:38;;;;;;;1.83;0.80;;;;;;;14.31;66.86;93230.75;5068890;28;20040;-47
2022/05/24 08:21:05;;;;;;;2.40;0.80;;;;;;;14.53;65.01;93235.41;5069624;28;20061;-45
2022/05/24 08:23:32;;;;;;;2.92;0.60;;;;;;;14.93;64.17;93234.53;5064768;28;20144;-50
2022/05/24 08:26:00;;;;;;;2.07;0.60;;;;;;;14.79;63.62;93238.69;5089922;28;20429;-49
2022/05/24 08:28:26;;;;;;;1.90;0.50;;;;;;;14.78;64.18;93239.91;5089846;28;20063;-52
2022/05/24 08:30:56;;;;;;;4.50;2.58;;;;;;;15.01;62.01;93233.03;5088655;28;20290;-48
2022/05/24 08:33:24;;;;;;;3.17;0.70;;;;;;;14.96;63.02;93242.66;5090125;28;20047;-47
2022/05/24 08:35:51;;;;;;;4.05;0.77;;;;;;;15.26;62.15;93244.97;5089245;28;20037;-52
2022/05/24 08:38:18;;;;;;;3.30;0.60;;;;;;;15.36;61.39;93246.50;5088492;28;20040;-50
2022/05/24 08:40:47;;;;;;;2.20;0.70;;;;;;;15.51;60.45;93250.16;5089064;28;20071;-46
2022/05/24 08:43:41;;;;;;;3.03;0.60;;;;;;;15.25;59.95;93254.50;5089825;28;20044;-51
2022/05/24 08:49:13;;;;;;;4.82;0.75;;;;;;;15.12;60.83;93249.88;5088713;28;20095;-54
2022/05/24 08:51:48;;;;;;;2.20;0.53;;;;;;;15.91;58.38;93246.38;5088888;28;20044;-50
2022/05/24 08:54:33;;;;;;;2.10;0.70;;;;;;;16.43;54.90;93248.34;5081408;28;20050;-55
2022/05/24 08:57:09;;;;;;;2.00;0.60;;;;;;;17.21;53.80;93240.91;5088390;28;20044;-51
2022/05/24 08:59:44;;;;;;;2.50;0.80;;;;;;;19.01;49.51;93245.00;5092029;28;20044;-62
2022/05/24 09:02:11;;;;;;;3.28;0.60;;;;;;;21.22;43.41;93237.97;5093068;28;20040;-52
2022/05/24 09:04:38;;;;;;;1.77;0.53;;;;;;;21.81;39.81;93230.81;5092542;28;20048;-51
2022/05/24 09:07:13;;;;;;;2.05;0.70;;;;;;;21.40;40.02;93233.97;5093609;28;20060;-52
2022/05/24 09:10:06;;;;;;;1.60;0.60;;;;;;;20.99;42.42;93245.50;5092729;28;20416;-51
2022/05/24 09:13:01;;;;;;;2.30;0.50;;;;;;;21.41;40.08;93255.06;5092750;28;20393;-48
2022/05/24 09:15:52;;;;;;;1.85;0.70;;;;;;;22.19;37.61;93245.31;5090642;28;20393;-53
2022/05/24 09:18:34;;;;;;;2.03;0.70;;;;;;;22.65;37.38;93241.22;5093180;28;20040;-51
2022/05/24 09:21:01;;;;;;;3.95;0.77;;;;;;;22.80;35.62;93235.38;5091744;28;20492;-50
2022/05/24 09:23:45;;;;;;;2.20;0.60;;;;;;;21.97;38.07;93234.13;5088824;28;20036;-54
2022/05/24 09:26:22;;;;;;;4.88;0.70;;;;;;;23.54;35.69;93247.06;5072748;28;20412;-51
2022/05/24 09:29:13;;;;;;;4.30;0.68;;;;;;;23.41;34.06;93236.47;5070866;28;20481;-52
2022/05/24 09:31:52;;;;;;;1.90;0.60;;;;;;;22.98;35.48;93248.06;5072061;28;20048;-55
2022/05/24 09:34:19;;;;;;;1.83;0.52;;;;;;;22.16;35.33;93240.00;5072560;28;20082;-51
2022/05/24 09:36:56;;;;;;;2.67;0.60;;;;;;;21.18;36.82;93254.19;5072109;28;20051;-52
2022/05/24 09:39:35;;;;;;;1.65;0.70;;;;;;;20.51;37.90;93235.81;5072633;28;20071;-53
2022/05/24 09:42:06;;;;;;;2.20;0.75;;;;;;;22.52;35.83;93247.38;5070257;28;20422;-50
2022/05/24 09:44:48;;;;;;;3.80;0.70;;;;;;;22.78;34.04;93248.34;5072068;28;20052;-53
2022/05/24 09:47:49;;;;;;;2.42;0.60;;;;;;;22.59;34.18;93254.47;5087789;28;20159;-53
2022/05/24 09:50:20;;;;;;;2.20;0.75;;;;;;;21.68;36.17;93259.22;5071573;28;20067;-48
2022/05/24 09:53:02;;;;;;;2.25;0.70;;;;;;;22.30;35.51;93256.53;5072888;28;20052;-52
2022/05/24 09:55:50;;;;;;;2.53;0.77;;;;;;;22.05;35.15;93260.28;5071991;28;20386;-53
2022/05/24 09:58:27;;;;;;;1.63;0.60;;;;;;;21.39;35.54;93262.38;5072289;28;20041;-50
2022/05/24 10:00:56;;;;;;;2.80;0.82;;;;;;;22.92;33.24;93264.84;5081919;28;20040;-51
2022/05/24 10:03:38;;;;;;;1.90;0.60;;;;;;;22.74;32.30;93262.59;5092120;28;20036;-55
2022/05/24 10:06:10;;;;;;;2.40;0.50;;;;;;;22.38;32.49;93273.56;5091077;28;21864;-50
2022/05/24 10:08:47;;;;;;;3.10;0.98;;;;;;;21.99;34.50;93253.94;5091591;28;20066;-56
2022/05/24 10:11:27;;;;;;;1.60;0.60;;;;;;;22.07;33.35;93268.94;5092137;28;20051;-51
2022/05/24 10:14:06;;;;;;;1.85;0.60;;;;;;;21.42;34.86;93281.69;5090897;28;20647;-51
2022/05/24 10:16:54;;;;;;;1.70;0.55;;;;;;;20.65;36.73;93283.59;5091791;28;20048;-53
2022/05/24 10:19:39;;;;;;;2.63;0.88;;;;;;;20.14;38.83;93283.94;5091922;28;20187;-56
2022/05/24 10:22:47;;;;;;;1.60;0.70;;;;;;;21.00;36.43;93291.66;5088745;28;21488;-56
2022/05/24 10:25:32;;;;;;;4.43;0.90;;;;;;;20.29;37.78;93283.03;5032329;28;20046;-51
2022/05/24 10:28:17;;;;;;;2.00;0.60;;;;;;;20.51;36.90;93296.38;5050472;28;20349;-52
2022/05/24 10:30:57;;;;;;;1.83;0.60;;;;;;;20.28;36.77;93290.66;5051029;28;20094;-50
2022/05/24 10:40:04;;;;;;;2.00;0.60;;;;;;;22.42;34.41;93290.84;5032718;28;20106;-51
2022/05/24 10:42:37;;;;;;;1.80;0.60;;;;;;;23.14;32.07;93274.50;5051021;28;20048;-55
2022/05/24 10:45:10;;;;;;;1.73;0.60;;;;;;;23.35;31.58;93291.72;5050712;28;20045;-52
2022/05/24 10:47:56;;;;;;;1.50;0.50;;;;;;;23.90;31.09;93289.97;5050808;28;20067;-55
2022/05/24 10:50:31;;;;;;;2.55;0.60;;;;;;;22.30;33.92;93289.31;5051056;28;20071;-52
2022/05/24 10:53:05;;;;;;;1.73;0.50;;;;;;;22.62;32.85;93280.66;5055806;28;21798;-49
2022/05/24 10:55:37;;;;;;;2.05;0.73;;;;;;;22.48;32.50;93276.88;5070648;28;20051;-57
2022/05/24 10:58:09;;;;;;;1.90;0.63;;;;;;;23.08;32.57;93279.31;5070612;28;20040;-49
2022/05/24 11:00:44;;;;;;;1.80;0.60;;;;;;;23.18;32.50;93279.81;5070460;28;20374;-50
2022/05/24 11:03:17;;;;;;;2.13;0.60;;;;;;;22.19;33.60;93283.69;5071053;28;20073;-51
2022/05/24 11:06:09;;;;;;;1.70;0.60;;;;;;;21.59;34.26;93297.78;5070471;28;20049;-53
2022/05/24 11:08:46;;;;;;;2.20;0.80;;;;;;;21.08;34.55;93278.00;5070562;28;20404;-50
2022/05/24 11:11:36;;;;;;;2.35;0.52;;;;;;;21.61;34.04;93279.25;5069614;28;20041;-48
2022/05/24 11:14:08;;;;;;;2.85;0.80;;;;;;;22.41;32.95;93280.91;5069805;28;20915;-52
2022/05/24 11:16:41;;;;;;;2.15;0.70;;;;;;;23.09;32.54;93283.66;5069966;28;20079;-57
2022/05/24 11:19:31;;;;;;;2.37;0.70;;;;;;;22.03;33.47;93294.31;5070329;28;20086;-51
2022/05/24 11:22:05;;;;;;;2.75;0.77;;;;;;;21.76;32.67;93292.25;5068586;28;20821;-56
2022/05/24 11:24:50;;;;;;;2.08;0.70;;;;;;;21.93;32.46;93291.03;5057447;28;20048;-51
2022/05/24 11:27:26;;;;;;;2.25;0.70;;;;;;;22.26;31.64;93278.38;5050651;28;20045;-50
2022/05/24 11:29:57;;;;;;;2.72;0.80;;;;;;;20.56;33.56;93292.84;5069066;28;20727;-52
2022/05/24 11:32:38;;;;;;;1.70;0.60;;;;;;;21.58;33.04;93269.09;5070496;28;20049;-51
2022/05/24 11:35:25;;;;;;;2.35;0.70;;;;;;;21.66;31.73;93274.97;5069139;28;20404;-53
2022/05/24 11:38:35;;;;;;;1.70;0.60;;;;;;;22.68;30.99;93268.19;5069848;28;20041;-53
2022/05/24 11:41:12;;;;;;;1.80;0.70;;;;;;;21.86;31.22;93274.75;5069126;28;20037;-51
2022/05/24 11:43:44;;;;;;;2.13;0.70;;;;;;;21.45;32.91;93272.34;5069870;28;20501;-52
2022/05/24 11:46:34;;;;;;;2.73;0.70;;;;;;;21.25;33.19;93266.91;5070084;28;20044;-48
2022/05/24 11:49:28;;;;;;;2.78;0.70;;;;;;;20.86;33.09;93259.13;5069034;28;20095;-51
2022/05/24 11:51:57;;;;;;;2.60;0.77;;;;;;;20.97;34.39;93264.78;5068361;28;20745;-50
2022/05/24 11:54:24;;;;;;;3.13;0.75;;;;;;;21.78;33.47;93272.97;5078082;28;20044;-52
2022/05/24 11:57:03;;;;;;;2.30;0.80;;;;;;;21.97;32.68;93268.41;5069346;28;20044;-52
2022/05/24 11:59:48;;;;;;;1.90;0.70;;;;;;;21.42;33.75;93267.75;5069544;28;20070;-57
2022/05/24 12:02:19;;;;;;;1.45;0.60;;;;;;;20.70;33.31;93271.69;5070049;28;20040;-48
2022/05/24 12:07:56;;;;;;;2.83;0.60;;;;;;;22.14;31.07;93262.84;5069125;28;20045;-52
2022/05/24 12:10:24;;;;;;;2.33;0.70;;;;;;;22.36;30.63;93264.91;5069810;28;20044;-55
2022/05/24 12:12:55;;;;;;;3.13;0.87;;;;;;;20.80;34.01;93269.47;5069146;28;20036;-50
2022/05/24 12:15:31;;;;;;;1.70;0.70;;;;;;;22.65;31.62;93258.00;5068322;28;20052;-57
2022/05/24 12:17:58;;;;;;;2.95;0.80;;;;;;;21.13;34.33;93266.88;5081367;28;20036;-53
2022/05/24 12:20:35;;;;;;;3.22;0.63;;;;;;;20.93;33.90;93269.81;5089475;28;20043;-55
2022/05/24 12:23:05;;;;;;;2.13;0.70;;;;;;;22.08;32.69;93267.66;5088672;28;21740;-55
2022/05/24 12:25:59;;;;;;;2.13;0.60;;;;;;;22.24;33.41;93269.75;5069626;28;20057;-56
2022/05/24 12:28:35;;;;;;;2.78;0.70;;;;;;;22.20;32.85;93274.03;5069622;28;20036;-56
2022/05/24 12:31:17;;;;;;;2.65;0.77;;;;;;;22.01;33.14;93276.53;5068463;28;20844;-52
2022/05/24 12:34:06;;;;;;;3.58;0.70;;;;;;;22.25;31.87;93267.69;5069591;28;20056;-55
2022/05/24 12:36:39;;;;;;;2.90;0.70;;;;;;;22.61;31.66;93276.34;5073468;28;20141;-51